createdAt,value
2023-03-23T15:59:53.837Z,3.78
2023-03-23T16:05:15.895Z,4.13
2023-03-23T16:10:38.103Z,4.47
2023-03-23T16:16:00.010Z,4.13
2023-03-23T16:21:21.956Z,4.10
2023-03-23T16:26:43.779Z,4.32
2023-03-23T16:32:05.750Z,4.22
2023-03-23T16:37:27.591Z,4.07
2023-03-23T16:42:49.675Z,3.50
2023-03-23T16:48:13.270Z,3.72
2023-03-23T16:53:35.424Z,3.60
2023-03-23T16:58:57.237Z,3.42
2023-03-23T17:04:19.154Z,3.40
2023-03-23T17:09:42.560Z,3.08
2023-03-23T17:15:05.841Z,3.53
2023-03-23T17:20:27.697Z,3.78
2023-03-23T17:25:49.778Z,3.42
2023-03-23T17:31:11.614Z,3.47
2023-03-23T17:36:33.497Z,3.83
2023-03-23T17:41:55.711Z,4.50
2023-03-23T17:47:17.568Z,4.53
2023-03-23T17:52:40.627Z,4.20
2023-03-23T17:58:02.512Z,4.90
2023-03-23T18:03:25.178Z,4.53
2023-03-23T18:08:47.089Z,4.40
2023-03-23T18:14:08.966Z,4.45
2023-03-23T18:19:30.770Z,4.88
2023-03-23T18:24:52.637Z,4.45
2023-03-23T18:30:14.841Z,4.55
2023-03-23T18:35:36.695Z,4.82
2023-03-23T18:40:59.535Z,5.20
2023-03-23T18:46:21.401Z,4.20
2023-03-23T18:51:43.269Z,5.70
2023-03-23T18:57:05.096Z,5.55
2023-03-23T19:02:27.088Z,5.40
2023-03-23T19:07:49.037Z,6.32
2023-03-23T19:13:10.970Z,6.85
2023-03-23T19:18:33.514Z,5.70
2023-03-23T19:23:55.842Z,5.38
2023-03-23T19:29:26.500Z,5.70
2023-03-23T19:34:51.169Z,5.70
2023-03-23T19:40:31.075Z,5.80
2023-03-23T19:45:55.182Z,4.07
2023-03-23T19:51:21.474Z,4.13
2023-03-23T19:56:43.466Z,3.58
2023-03-23T20:02:05.524Z,3.28
2023-03-23T20:07:27.365Z,3.60
2023-03-23T20:12:49.264Z,3.10
2023-03-23T20:18:11.024Z,2.70
2023-03-23T20:23:33.697Z,2.97
2023-03-23T20:28:55.868Z,2.50
2023-03-23T20:34:18.030Z,2.35
2023-03-23T20:39:39.883Z,2.67
2023-03-23T20:45:02.537Z,2.35
2023-03-23T20:50:24.400Z,2.30
2023-03-23T20:55:46.411Z,2.40
2023-03-23T21:01:08.610Z,3.13
2023-03-23T21:06:31.231Z,2.90
2023-03-23T21:11:53.973Z,2.25
2023-03-23T21:17:15.825Z,2.42
2023-03-23T21:22:37.999Z,2.90
2023-03-23T21:28:00.159Z,2.60
2023-03-23T21:33:22.023Z,2.97
2023-03-23T21:38:44.017Z,3.10
2023-03-23T21:44:06.003Z,2.88
2023-03-23T21:49:28.742Z,3.28
2023-03-23T21:54:50.602Z,3.20
2023-03-23T22:00:12.939Z,3.15
2023-03-23T22:05:38.985Z,3.05
2023-03-23T22:11:03.266Z,4.37
2023-03-23T22:16:26.135Z,3.15
2023-03-23T22:21:48.084Z,3.33
2023-03-23T22:27:09.957Z,3.80
2023-03-23T22:32:31.836Z,4.22
2023-03-23T22:37:54.277Z,4.75
2023-03-23T22:43:16.151Z,4.68
2023-03-23T22:48:38.260Z,5.35
2023-03-23T22:54:00.164Z,5.18
2023-03-23T22:59:22.200Z,5.43
2023-03-23T23:04:44.100Z,5.65
2023-03-23T23:10:06.866Z,5.95
2023-03-23T23:15:28.761Z,5.80
2023-03-23T23:20:53.171Z,5.45
2023-03-23T23:26:16.337Z,4.60
2023-03-23T23:31:38.271Z,4.05
2023-03-23T23:37:00.563Z,4.35
2023-03-23T23:42:23.269Z,4.40
2023-03-23T23:47:46.029Z,3.67
2023-03-23T23:53:08.212Z,4.40
2023-03-23T23:58:30.368Z,3.83
